sensor_id;sensor_type;location;lat;lon;timestamp;P1;durP1;ratioP1;P2;durP2;ratioP2
10391;SDS011;5242;49.244;6.774;2023-04-03T00:05:54;0.50;;;0.50;;
10391;SDS011;5242;49.244;6.774;2023-04-03T00:13:46;0.60;;;0.60;;
10391;SDS011;5242;49.244;6.774;2023-04-03T00:21:38;0.60;;;0.60;;
10391;SDS011;5242;49.244;6.774;2023-04-03T00:29:30;0.50;;;0.50;;
10391;SDS011;5242;49.244;6.774;2023-04-03T00:37:21;0.43;;;0.43;;
10391;SDS011;5242;49.244;6.774;2023-04-03T00:53:14;0.60;;;0.60;;
10391;SDS011;5242;49.244;6.774;2023-04-03T01:01:10;0.60;;;0.60;;
10391;SDS011;5242;49.244;6.774;2023-04-03T01:09:06;0.50;;;0.50;;
10391;SDS011;5242;49.244;6.774;2023-04-03T01:16:59;0.50;;;0.50;;
10391;SDS011;5242;49.244;6.774;2023-04-03T01:24:50;0.50;;;0.50;;
10391;SDS011;5242;49.244;6.774;2023-04-03T01:32:44;0.50;;;0.50;;
10391;SDS011;5242;49.244;6.774;2023-04-03T01:40:36;0.50;;;0.50;;
10391;SDS011;5242;49.244;6.774;2023-04-03T01:48:29;0.60;;;0.60;;
10391;SDS011;5242;49.244;6.774;2023-04-03T01:56:20;0.80;;;0.80;;
10391;SDS011;5242;49.244;6.774;2023-04-03T02:04:12;0.50;;;0.50;;
10391;SDS011;5242;49.244;6.774;2023-04-03T02:12:04;0.60;;;0.60;;
10391;SDS011;5242;49.244;6.774;2023-04-03T02:19:56;0.55;;;0.55;;
10391;SDS011;5242;49.244;6.774;2023-04-03T02:27:48;0.65;;;0.65;;
10391;SDS011;5242;49.244;6.774;2023-04-03T02:35:40;0.70;;;0.70;;
10391;SDS011;5242;49.244;6.774;2023-04-03T02:43:32;0.60;;;0.60;;
10391;SDS011;5242;49.244;6.774;2023-04-03T02:51:24;0.70;;;0.70;;
10391;SDS011;5242;49.244;6.774;2023-04-03T02:59:16;0.60;;;0.60;;
10391;SDS011;5242;49.244;6.774;2023-04-03T03:07:07;0.60;;;0.60;;
10391;SDS011;5242;49.244;6.774;2023-04-03T03:14:59;0.60;;;0.60;;
10391;SDS011;5242;49.244;6.774;2023-04-03T03:22:51;0.70;;;0.70;;
10391;SDS011;5242;49.244;6.774;2023-04-03T03:30:43;0.70;;;0.70;;
10391;SDS011;5242;49.244;6.774;2023-04-03T03:38:35;0.60;;;0.60;;
10391;SDS011;5242;49.244;6.774;2023-04-03T03:46:27;0.70;;;0.70;;
10391;SDS011;5242;49.244;6.774;2023-04-03T03:54:18;0.60;;;0.60;;
10391;SDS011;5242;49.244;6.774;2023-04-03T04:02:10;0.60;;;0.60;;
10391;SDS011;5242;49.244;6.774;2023-04-03T04:10:03;0.60;;;0.60;;
10391;SDS011;5242;49.244;6.774;2023-04-03T04:17:55;0.70;;;0.70;;
10391;SDS011;5242;49.244;6.774;2023-04-03T04:25:48;0.93;;;0.93;;
10391;SDS011;5242;49.244;6.774;2023-04-03T04:33:40;0.60;;;0.60;;
10391;SDS011;5242;49.244;6.774;2023-04-03T04:41:32;0.80;;;0.80;;
10391;SDS011;5242;49.244;6.774;2023-04-03T04:49:24;1.13;;;1.13;;
10391;SDS011;5242;49.244;6.774;2023-04-03T04:57:16;0.65;;;0.65;;
10391;SDS011;5242;49.244;6.774;2023-04-03T05:05:08;0.70;;;0.70;;
10391;SDS011;5242;49.244;6.774;2023-04-03T05:13:00;0.70;;;0.70;;
10391;SDS011;5242;49.244;6.774;2023-04-03T05:20:52;0.60;;;0.60;;
10391;SDS011;5242;49.244;6.774;2023-04-03T05:28:44;1.10;;;1.10;;
10391;SDS011;5242;49.244;6.774;2023-04-03T05:36:36;0.60;;;0.60;;
10391;SDS011;5242;49.244;6.774;2023-04-03T05:44:28;0.60;;;0.60;;
10391;SDS011;5242;49.244;6.774;2023-04-03T05:52:21;0.70;;;0.70;;
10391;SDS011;5242;49.244;6.774;2023-04-03T06:00:13;0.60;;;0.60;;
10391;SDS011;5242;49.244;6.774;2023-04-03T06:08:07;0.60;;;0.60;;
10391;SDS011;5242;49.244;6.774;2023-04-03T06:16:00;0.70;;;0.70;;
10391;SDS011;5242;49.244;6.774;2023-04-03T06:23:52;0.52;;;0.52;;
10391;SDS011;5242;49.244;6.774;2023-04-03T06:31:44;0.50;;;0.50;;
10391;SDS011;5242;49.244;6.774;2023-04-03T06:39:36;0.50;;;0.50;;
10391;SDS011;5242;49.244;6.774;2023-04-03T06:47:27;0.50;;;0.50;;
10391;SDS011;5242;49.244;6.774;2023-04-03T06:55:19;0.50;;;0.50;;
10391;SDS011;5242;49.244;6.774;2023-04-03T07:03:11;0.50;;;0.50;;
10391;SDS011;5242;49.244;6.774;2023-04-03T07:11:03;0.40;;;0.40;;
10391;SDS011;5242;49.244;6.774;2023-04-03T07:18:56;0.45;;;0.45;;
10391;SDS011;5242;49.244;6.774;2023-04-03T07:26:49;0.50;;;0.50;;
10391;SDS011;5242;49.244;6.774;2023-04-03T07:34:42;0.50;;;0.50;;
10391;SDS011;5242;49.244;6.774;2023-04-03T07:42:34;0.40;;;0.40;;
10391;SDS011;5242;49.244;6.774;2023-04-03T07:50:26;0.40;;;0.40;;
10391;SDS011;5242;49.244;6.774;2023-04-03T07:58:18;0.30;;;0.30;;
10391;SDS011;5242;49.244;6.774;2023-04-03T08:06:10;0.30;;;0.30;;
10391;SDS011;5242;49.244;6.774;2023-04-03T08:14:07;0.30;;;0.30;;
10391;SDS011;5242;49.244;6.774;2023-04-03T08:21:58;0.40;;;0.40;;
10391;SDS011;5242;49.244;6.774;2023-04-03T08:29:52;0.20;;;0.20;;
10391;SDS011;5242;49.244;6.774;2023-04-03T08:37:43;0.30;;;0.30;;
10391;SDS011;5242;49.244;6.774;2023-04-03T08:53:36;0.60;;;0.60;;
10391;SDS011;5242;49.244;6.774;2023-04-03T09:01:37;0.30;;;0.30;;
10391;SDS011;5242;49.244;6.774;2023-04-03T09:09:36;0.40;;;0.40;;
10391;SDS011;5242;49.244;6.774;2023-04-03T09:25:31;0.30;;;0.30;;
10391;SDS011;5242;49.244;6.774;2023-04-03T09:33:27;0.30;;;0.30;;
10391;SDS011;5242;49.244;6.774;2023-04-03T09:41:21;0.30;;;0.30;;
10391;SDS011;5242;49.244;6.774;2023-04-03T09:49:15;0.20;;;0.20;;
10391;SDS011;5242;49.244;6.774;2023-04-03T09:57:07;0.20;;;0.20;;
10391;SDS011;5242;49.244;6.774;2023-04-03T10:05:11;0.20;;;0.20;;
10391;SDS011;5242;49.244;6.774;2023-04-03T10:13:20;0.30;;;0.30;;
10391;SDS011;5242;49.244;6.774;2023-04-03T10:21:15;0.20;;;0.20;;
10391;SDS011;5242;49.244;6.774;2023-04-03T10:37:34;0.20;;;0.20;;
10391;SDS011;5242;49.244;6.774;2023-04-03T11:01:35;0.30;;;0.30;;
10391;SDS011;5242;49.244;6.774;2023-04-03T11:09:33;0.60;;;0.60;;
10391;SDS011;5242;49.244;6.774;2023-04-03T11:17:39;0.30;;;0.30;;
10391;SDS011;5242;49.244;6.774;2023-04-03T11:25:38;0.35;;;0.35;;
10391;SDS011;5242;49.244;6.774;2023-04-03T11:41:55;0.30;;;0.30;;
10391;SDS011;5242;49.244;6.774;2023-04-03T11:58:28;0.20;;;0.20;;
10391;SDS011;5242;49.244;6.774;2023-04-03T12:06:41;0.20;;;0.20;;
10391;SDS011;5242;49.244;6.774;2023-04-03T12:14:40;0.22;;;0.22;;
10391;SDS011;5242;49.244;6.774;2023-04-03T12:22:32;0.30;;;0.30;;
10391;SDS011;5242;49.244;6.774;2023-04-03T12:30:27;0.32;;;0.32;;
10391;SDS011;5242;49.244;6.774;2023-04-03T12:46:20;0.30;;;0.30;;
10391;SDS011;5242;49.244;6.774;2023-04-03T12:54:25;0.28;;;0.28;;
10391;SDS011;5242;49.244;6.774;2023-04-03T13:02:26;0.30;;;0.30;;
10391;SDS011;5242;49.244;6.774;2023-04-03T13:10:21;0.20;;;0.20;;
10391;SDS011;5242;49.244;6.774;2023-04-03T13:18:33;0.30;;;0.30;;
10391;SDS011;5242;49.244;6.774;2023-04-03T13:26:27;0.30;;;0.30;;
10391;SDS011;5242;49.244;6.774;2023-04-03T13:34:22;0.20;;;0.20;;
10391;SDS011;5242;49.244;6.774;2023-04-03T13:42:22;0.30;;;0.30;;
10391;SDS011;5242;49.244;6.774;2023-04-03T13:50:20;0.30;;;0.30;;
10391;SDS011;5242;49.244;6.774;2023-04-03T14:06:06;0.25;;;0.25;;
10391;SDS011;5242;49.244;6.774;2023-04-03T14:14:05;0.30;;;0.30;;
10391;SDS011;5242;49.244;6.774;2023-04-03T14:30:15;0.30;;;0.30;;
10391;SDS011;5242;49.244;6.774;2023-04-03T14:38:27;0.30;;;0.30;;
10391;SDS011;5242;49.244;6.774;2023-04-03T14:46:34;0.40;;;0.40;;
10391;SDS011;5242;49.244;6.774;2023-04-03T14:54:47;0.35;;;0.35;;
10391;SDS011;5242;49.244;6.774;2023-04-03T15:02:39;0.40;;;0.40;;
10391;SDS011;5242;49.244;6.774;2023-04-03T15:10:32;0.40;;;0.40;;
10391;SDS011;5242;49.244;6.774;2023-04-03T15:18:25;0.35;;;0.35;;
10391;SDS011;5242;49.244;6.774;2023-04-03T15:26:21;0.60;;;0.60;;
10391;SDS011;5242;49.244;6.774;2023-04-03T15:34:13;0.40;;;0.40;;
10391;SDS011;5242;49.244;6.774;2023-04-03T15:42:05;0.32;;;0.32;;
10391;SDS011;5242;49.244;6.774;2023-04-03T15:50:00;0.45;;;0.45;;
10391;SDS011;5242;49.244;6.774;2023-04-03T15:57:52;0.40;;;0.40;;
10391;SDS011;5242;49.244;6.774;2023-04-03T16:05:44;0.30;;;0.30;;
10391;SDS011;5242;49.244;6.774;2023-04-03T16:13:36;0.30;;;0.30;;
10391;SDS011;5242;49.244;6.774;2023-04-03T16:21:28;0.40;;;0.40;;
10391;SDS011;5242;49.244;6.774;2023-04-03T16:29:21;0.40;;;0.40;;
10391;SDS011;5242;49.244;6.774;2023-04-03T16:37:12;0.50;;;0.50;;
10391;SDS011;5242;49.244;6.774;2023-04-03T16:45:05;0.40;;;0.40;;
10391;SDS011;5242;49.244;6.774;2023-04-03T16:52:58;0.40;;;0.40;;
10391;SDS011;5242;49.244;6.774;2023-04-03T17:00:50;0.40;;;0.40;;
10391;SDS011;5242;49.244;6.774;2023-04-03T17:08:43;0.40;;;0.40;;
10391;SDS011;5242;49.244;6.774;2023-04-03T17:16:36;0.40;;;0.40;;
10391;SDS011;5242;49.244;6.774;2023-04-03T17:24:29;0.50;;;0.50;;
10391;SDS011;5242;49.244;6.774;2023-04-03T17:32:20;0.50;;;0.50;;
10391;SDS011;5242;49.244;6.774;2023-04-03T17:40:13;0.40;;;0.40;;
10391;SDS011;5242;49.244;6.774;2023-04-03T17:48:05;0.50;;;0.50;;
10391;SDS011;5242;49.244;6.774;2023-04-03T17:55:57;0.50;;;0.50;;
10391;SDS011;5242;49.244;6.774;2023-04-03T18:03:50;0.40;;;0.40;;
10391;SDS011;5242;49.244;6.774;2023-04-03T18:11:45;0.50;;;0.50;;
10391;SDS011;5242;49.244;6.774;2023-04-03T18:19:37;0.50;;;0.50;;
10391;SDS011;5242;49.244;6.774;2023-04-03T18:27:29;0.70;;;0.70;;
10391;SDS011;5242;49.244;6.774;2023-04-03T18:35:21;0.50;;;0.50;;
10391;SDS011;5242;49.244;6.774;2023-04-03T18:43:13;0.40;;;0.40;;
10391;SDS011;5242;49.244;6.774;2023-04-03T18:51:06;0.50;;;0.50;;
10391;SDS011;5242;49.244;6.774;2023-04-03T18:59:00;0.60;;;0.60;;
10391;SDS011;5242;49.244;6.774;2023-04-03T19:06:53;0.40;;;0.40;;
10391;SDS011;5242;49.244;6.774;2023-04-03T19:14:45;0.50;;;0.50;;
10391;SDS011;5242;49.244;6.774;2023-04-03T19:22:36;0.50;;;0.50;;
10391;SDS011;5242;49.244;6.774;2023-04-03T19:30:28;0.50;;;0.50;;
10391;SDS011;5242;49.244;6.774;2023-04-03T19:38:22;0.50;;;0.50;;
10391;SDS011;5242;49.244;6.774;2023-04-03T19:46:13;0.50;;;0.50;;
10391;SDS011;5242;49.244;6.774;2023-04-03T19:54:05;0.50;;;0.50;;
10391;SDS011;5242;49.244;6.774;2023-04-03T20:01:57;0.50;;;0.50;;
10391;SDS011;5242;49.244;6.774;2023-04-03T20:09:50;0.50;;;0.50;;
10391;SDS011;5242;49.244;6.774;2023-04-03T20:17:42;0.60;;;0.60;;
10391;SDS011;5242;49.244;6.774;2023-04-03T20:25:34;0.52;;;0.52;;
10391;SDS011;5242;49.244;6.774;2023-04-03T20:33:44;0.50;;;0.50;;
10391;SDS011;5242;49.244;6.774;2023-04-03T20:41:38;0.57;;;0.57;;
10391;SDS011;5242;49.244;6.774;2023-04-03T20:49:30;0.60;;;0.60;;
10391;SDS011;5242;49.244;6.774;2023-04-03T20:57:22;0.50;;;0.50;;
10391;SDS011;5242;49.244;6.774;2023-04-03T21:05:14;0.57;;;0.57;;
10391;SDS011;5242;49.244;6.774;2023-04-03T21:21:37;0.50;;;0.50;;
10391;SDS011;5242;49.244;6.774;2023-04-03T21:29:30;0.57;;;0.57;;
10391;SDS011;5242;49.244;6.774;2023-04-03T21:37:21;0.60;;;0.60;;
10391;SDS011;5242;49.244;6.774;2023-04-03T21:45:14;0.60;;;0.60;;
10391;SDS011;5242;49.244;6.774;2023-04-03T21:53:06;0.80;;;0.80;;
10391;SDS011;5242;49.244;6.774;2023-04-03T22:01:11;0.60;;;0.60;;
10391;SDS011;5242;49.244;6.774;2023-04-03T22:09:04;0.60;;;0.60;;
10391;SDS011;5242;49.244;6.774;2023-04-03T22:16:56;0.55;;;0.55;;
10391;SDS011;5242;49.244;6.774;2023-04-03T22:24:48;0.60;;;0.60;;
10391;SDS011;5242;49.244;6.774;2023-04-03T22:32:40;0.60;;;0.60;;
10391;SDS011;5242;49.244;6.774;2023-04-03T22:40:32;0.60;;;0.60;;
10391;SDS011;5242;49.244;6.774;2023-04-03T22:48:24;0.60;;;0.60;;
10391;SDS011;5242;49.244;6.774;2023-04-03T22:56:16;0.60;;;0.60;;
10391;SDS011;5242;49.244;6.774;2023-04-03T23:04:07;0.60;;;0.60;;
10391;SDS011;5242;49.244;6.774;2023-04-03T23:11:59;0.60;;;0.60;;
10391;SDS011;5242;49.244;6.774;2023-04-03T23:19:51;0.60;;;0.60;;
10391;SDS011;5242;49.244;6.774;2023-04-03T23:27:50;0.60;;;0.60;;
10391;SDS011;5242;49.244;6.774;2023-04-03T23:35:45;0.57;;;0.57;;
10391;SDS011;5242;49.244;6.774;2023-04-03T23:43:38;0.60;;;0.60;;
10391;SDS011;5242;49.244;6.774;2023-04-03T23:51:31;0.60;;;0.60;;
10391;SDS011;5242;49.244;6.774;2023-04-03T23:59:23;0.60;;;0.60;;
